createdAt,value
2023-02-26T00:02:20.537Z,0.77
2023-02-26T00:04:47.902Z,0.60
2023-02-26T00:07:15.326Z,0.70
2023-02-26T00:09:42.703Z,0.70
2023-02-26T00:12:11.826Z,0.43
2023-02-26T00:14:39.421Z,0.80
2023-02-26T00:17:14.797Z,0.63
2023-02-26T00:19:44.008Z,0.50
2023-02-26T00:22:11.457Z,0.50
2023-02-26T00:24:38.805Z,0.60
2023-02-26T00:27:06.208Z,0.63
2023-02-26T00:29:34.218Z,0.80
2023-02-26T00:32:01.907Z,0.67
2023-02-26T00:34:29.487Z,0.80
2023-02-26T00:37:04.752Z,0.50
2023-02-26T00:39:36.690Z,0.40
2023-02-26T00:42:04.442Z,0.60
2023-02-26T00:44:32.551Z,0.70
2023-02-26T00:47:01.850Z,0.60
2023-02-26T00:49:39.493Z,0.47
2023-02-26T00:52:14.418Z,0.80
2023-02-26T00:54:41.771Z,0.63
2023-02-26T00:57:09.122Z,0.47
2023-02-26T00:59:36.538Z,0.90
2023-02-26T01:02:03.979Z,0.60
2023-02-26T01:04:31.746Z,0.90
2023-02-26T01:06:59.572Z,0.60
2023-02-26T01:09:29.775Z,0.50
2023-02-26T01:12:01.000Z,0.60
2023-02-26T01:14:29.573Z,0.50
2023-02-26T01:16:58.385Z,0.60
2023-02-26T01:19:29.743Z,0.70
2023-02-26T01:22:01.151Z,0.67
2023-02-26T01:24:30.820Z,0.57
2023-02-26T01:26:58.607Z,0.73
2023-02-26T01:29:27.533Z,0.57
2023-02-26T01:31:58.548Z,0.80
2023-02-26T01:34:29.805Z,0.63
2023-02-26T01:36:59.267Z,0.70
2023-02-26T01:39:29.966Z,0.50
2023-02-26T01:42:00.148Z,0.80
2023-02-26T01:44:30.262Z,0.87
2023-02-26T01:47:06.150Z,0.80
2023-02-26T01:49:34.702Z,0.63
2023-02-26T01:52:02.644Z,0.80
2023-02-26T01:54:31.355Z,0.60
2023-02-26T01:57:01.545Z,0.80
2023-02-26T01:59:29.147Z,0.70
2023-02-26T02:01:59.198Z,0.67
2023-02-26T02:04:26.898Z,0.50
2023-02-26T02:06:55.153Z,0.83
2023-02-26T02:09:22.523Z,0.60
2023-02-26T02:11:55.428Z,0.80
2023-02-26T02:14:27.432Z,0.60
2023-02-26T02:16:58.233Z,0.63
2023-02-26T02:19:34.694Z,0.63
2023-02-26T02:22:16.162Z,0.60
2023-02-26T02:24:53.503Z,0.70
2023-02-26T02:27:24.473Z,0.87
2023-02-26T02:30:02.092Z,0.90
2023-02-26T02:32:32.559Z,0.73
2023-02-26T02:35:03.869Z,0.57
2023-02-26T02:37:33.291Z,0.50
2023-02-26T02:40:02.441Z,1.27
2023-02-26T02:42:32.576Z,0.80
2023-02-26T02:45:01.736Z,0.53
2023-02-26T02:47:31.761Z,0.77
2023-02-26T02:50:03.625Z,0.67
2023-02-26T02:52:33.247Z,0.77
2023-02-26T02:55:03.161Z,0.97
2023-02-26T02:57:34.875Z,0.77
2023-02-26T03:00:06.067Z,0.90
2023-02-26T03:02:37.312Z,1.17
2023-02-26T03:05:07.519Z,0.70
2023-02-26T03:07:37.108Z,0.70
2023-02-26T03:10:05.386Z,0.83
2023-02-26T03:12:33.531Z,0.80
2023-02-26T03:15:02.285Z,1.17
2023-02-26T03:17:33.364Z,0.90
2023-02-26T03:20:06.262Z,0.90
2023-02-26T03:22:40.601Z,1.07
2023-02-26T03:25:17.366Z,1.23
2023-02-26T03:27:46.959Z,1.10
2023-02-26T03:30:17.184Z,0.60
2023-02-26T03:32:52.597Z,1.13
2023-02-26T03:35:26.932Z,1.00
2023-02-26T03:37:58.946Z,1.37
2023-02-26T03:40:30.300Z,1.10
2023-02-26T03:42:58.892Z,0.83
2023-02-26T03:45:27.889Z,1.23
2023-02-26T03:47:56.389Z,1.10
2023-02-26T03:50:27.157Z,1.10
2023-02-26T03:53:23.159Z,1.20
2023-02-26T03:55:58.680Z,1.40
2023-02-26T03:58:45.177Z,0.83
2023-02-26T04:01:42.739Z,0.50
2023-02-26T04:04:13.478Z,1.13
2023-02-26T04:06:42.240Z,1.17
2023-02-26T04:09:10.981Z,0.70
2023-02-26T04:11:39.220Z,0.53
2023-02-26T04:14:06.709Z,1.23
2023-02-26T04:16:39.528Z,1.33
2023-02-26T04:19:07.325Z,1.03
2023-02-26T04:21:34.692Z,1.23
2023-02-26T04:24:02.115Z,0.90
2023-02-26T04:26:30.946Z,0.93
2023-02-26T04:28:58.341Z,1.27
2023-02-26T04:31:25.734Z,1.50
2023-02-26T04:33:53.242Z,0.87
2023-02-26T04:36:20.622Z,1.07
2023-02-26T04:38:48.005Z,1.20
2023-02-26T04:41:16.322Z,1.10
2023-02-26T04:43:47.469Z,0.90
2023-02-26T04:46:25.661Z,1.33
2023-02-26T04:48:53.628Z,0.93
2023-02-26T04:51:21.153Z,1.37
2023-02-26T04:53:51.188Z,1.20
2023-02-26T04:56:19.303Z,1.33
2023-02-26T04:58:48.831Z,0.93
2023-02-26T05:01:22.741Z,0.90
2023-02-26T05:03:50.114Z,0.87
2023-02-26T05:06:17.551Z,1.00
2023-02-26T05:08:44.929Z,1.27
2023-02-26T05:11:12.790Z,1.17
2023-02-26T05:13:40.158Z,1.30
2023-02-26T05:16:09.369Z,0.87
2023-02-26T05:18:37.122Z,0.70
2023-02-26T05:21:05.497Z,1.33
2023-02-26T05:23:33.734Z,0.80
2023-02-26T05:26:01.094Z,2.00
2023-02-26T05:28:28.548Z,0.80
2023-02-26T05:30:57.348Z,1.30
2023-02-26T05:33:27.253Z,1.13
2023-02-26T05:35:54.670Z,1.50
2023-02-26T05:38:22.045Z,1.23
2023-02-26T05:40:49.538Z,1.73
2023-02-26T05:43:16.887Z,1.37
2023-02-26T05:45:44.279Z,1.27
2023-02-26T05:48:12.017Z,1.13
2023-02-26T05:50:40.706Z,1.27
2023-02-26T05:53:08.707Z,1.37
2023-02-26T05:55:36.040Z,1.80
2023-02-26T05:58:03.374Z,1.10
2023-02-26T06:00:30.874Z,1.00
2023-02-26T06:02:58.269Z,1.90
2023-02-26T06:05:25.890Z,1.33
2023-02-26T06:07:54.642Z,1.70
2023-02-26T06:10:22.335Z,1.27
2023-02-26T06:12:49.721Z,1.43
2023-02-26T06:15:17.298Z,1.50
2023-02-26T06:17:44.647Z,1.47
2023-02-26T06:20:12.734Z,1.30
2023-02-26T06:22:40.189Z,1.50
2023-02-26T06:25:09.417Z,1.40
2023-02-26T06:27:36.867Z,1.50
2023-02-26T06:30:04.759Z,1.73
2023-02-26T06:32:32.151Z,1.63
2023-02-26T06:34:59.529Z,1.70
2023-02-26T06:37:28.139Z,1.83
2023-02-26T06:39:55.583Z,1.97
2023-02-26T06:42:24.291Z,0.90
2023-02-26T06:44:51.641Z,1.70
2023-02-26T06:47:19.046Z,1.40
2023-02-26T06:49:48.963Z,1.93
2023-02-26T06:52:16.300Z,1.47
2023-02-26T06:54:43.977Z,1.37
2023-02-26T06:57:11.312Z,1.33
2023-02-26T06:59:40.011Z,1.50
2023-02-26T07:02:07.572Z,2.10
2023-02-26T07:04:34.972Z,1.87
2023-02-26T07:07:03.001Z,1.30
2023-02-26T07:09:30.337Z,1.63
2023-02-26T07:11:57.716Z,1.27
2023-02-26T07:14:25.069Z,1.30
2023-02-26T07:16:53.850Z,1.47
2023-02-26T07:19:21.780Z,1.50
2023-02-26T07:21:49.355Z,1.03
2023-02-26T07:24:16.954Z,1.20
2023-02-26T07:26:44.298Z,0.87
2023-02-26T07:29:11.818Z,1.13
2023-02-26T07:31:39.421Z,1.80
2023-02-26T07:34:08.510Z,1.40
2023-02-26T07:36:35.856Z,1.60
2023-02-26T07:39:03.196Z,1.23
2023-02-26T07:41:30.799Z,1.33
2023-02-26T07:43:58.148Z,1.53
2023-02-26T07:46:26.026Z,1.23
2023-02-26T07:48:53.510Z,1.40
2023-02-26T07:51:22.312Z,0.83
2023-02-26T07:53:49.699Z,1.37
2023-02-26T07:56:17.064Z,1.27
2023-02-26T07:58:44.556Z,1.37
2023-02-26T08:01:11.934Z,1.40
2023-02-26T08:03:39.404Z,0.60
2023-02-26T08:06:08.362Z,1.23
2023-02-26T08:08:37.167Z,1.37
2023-02-26T08:11:04.828Z,1.50
2023-02-26T08:13:32.330Z,1.00
2023-02-26T08:15:59.742Z,1.30
2023-02-26T08:18:27.364Z,1.20
2023-02-26T08:20:54.781Z,1.13
2023-02-26T08:23:22.378Z,1.10
2023-02-26T08:25:51.279Z,1.27
2023-02-26T08:28:19.135Z,1.00
2023-02-26T08:30:46.542Z,0.87
2023-02-26T08:33:13.929Z,0.90
2023-02-26T08:35:41.498Z,1.00
2023-02-26T08:38:08.846Z,1.30
2023-02-26T08:40:36.270Z,0.67
2023-02-26T08:43:05.125Z,0.93
2023-02-26T08:45:32.642Z,1.07
2023-02-26T08:48:00.044Z,0.83
2023-02-26T08:50:29.212Z,0.60
2023-02-26T08:52:56.880Z,0.47
2023-02-26T08:55:24.381Z,0.87
2023-02-26T08:57:51.804Z,0.63
2023-02-26T09:00:21.302Z,0.67
2023-02-26T09:02:48.927Z,0.93
2023-02-26T09:05:16.408Z,0.97
2023-02-26T09:07:44.100Z,0.60
2023-02-26T09:10:13.852Z,0.50
2023-02-26T09:12:41.253Z,0.77
2023-02-26T09:15:09.942Z,0.70
2023-02-26T09:17:39.060Z,0.90
2023-02-26T09:20:07.083Z,0.60
2023-02-26T09:22:34.419Z,0.90
2023-02-26T09:25:02.038Z,0.70
2023-02-26T09:27:29.430Z,0.63
2023-02-26T09:29:56.989Z,0.80
2023-02-26T09:32:26.257Z,0.83
2023-02-26T09:34:55.074Z,0.60
2023-02-26T09:37:22.463Z,0.80
2023-02-26T09:39:50.034Z,0.67
2023-02-26T09:42:27.102Z,0.73
2023-02-26T09:44:58.418Z,0.90
2023-02-26T09:47:28.143Z,0.60
2023-02-26T09:49:58.820Z,0.70
2023-02-26T09:52:28.364Z,0.67
2023-02-26T09:54:57.999Z,1.10
2023-02-26T09:57:28.675Z,0.60
2023-02-26T09:59:56.360Z,0.80
2023-02-26T10:02:28.024Z,0.93
2023-02-26T10:04:59.865Z,0.67
2023-02-26T10:07:32.809Z,0.60
2023-02-26T10:10:13.960Z,0.40
2023-02-26T10:12:42.691Z,0.73
2023-02-26T10:15:13.213Z,0.80
2023-02-26T10:17:43.151Z,0.63
2023-02-26T10:20:15.570Z,0.87
2023-02-26T10:22:47.733Z,0.77
2023-02-26T10:25:17.154Z,0.70
2023-02-26T10:27:49.583Z,0.60
2023-02-26T10:30:22.320Z,1.20
2023-02-26T10:32:53.843Z,0.37
2023-02-26T10:35:26.039Z,1.20
2023-02-26T10:37:57.130Z,0.50
2023-02-26T10:40:26.466Z,1.17
2023-02-26T10:42:56.131Z,0.70
2023-02-26T10:45:34.310Z,0.63
2023-02-26T10:48:09.841Z,0.53
2023-02-26T10:50:40.059Z,0.83
2023-02-26T10:53:10.742Z,0.50
2023-02-26T10:55:40.349Z,0.60
2023-02-26T10:58:13.228Z,0.70
2023-02-26T11:00:41.736Z,1.10
2023-02-26T11:03:09.950Z,0.20
2023-02-26T11:05:40.285Z,0.70
2023-02-26T11:08:12.052Z,0.80
2023-02-26T11:10:43.466Z,0.43
2023-02-26T11:13:11.379Z,0.73
2023-02-26T11:15:39.138Z,1.70
2023-02-26T11:18:06.688Z,0.90
2023-02-26T11:20:38.606Z,0.77
2023-02-26T11:23:08.327Z,0.70
2023-02-26T11:25:36.332Z,0.40
2023-02-26T11:28:05.546Z,0.70
2023-02-26T11:30:36.558Z,0.63
2023-02-26T11:33:17.054Z,0.40
2023-02-26T11:35:44.663Z,0.50
2023-02-26T11:38:17.463Z,0.57
2023-02-26T11:40:47.026Z,0.60
2023-02-26T11:43:16.096Z,0.43
2023-02-26T11:45:45.289Z,0.50
2023-02-26T11:48:14.492Z,0.60
2023-02-26T11:50:43.875Z,0.23
2023-02-26T11:53:18.997Z,0.47
2023-02-26T11:55:48.978Z,0.63
2023-02-26T11:58:18.379Z,0.40
2023-02-26T12:00:46.523Z,0.20
2023-02-26T12:03:17.061Z,0.40
2023-02-26T12:05:45.388Z,0.50
2023-02-26T12:08:17.320Z,0.97
2023-02-26T12:10:49.596Z,0.33
2023-02-26T12:13:20.282Z,0.60
2023-02-26T12:15:52.286Z,0.50
2023-02-26T12:18:25.308Z,0.50
2023-02-26T12:20:57.513Z,0.60
2023-02-26T12:23:37.412Z,0.60
2023-02-26T12:26:12.012Z,0.80
2023-02-26T12:28:43.170Z,0.40
2023-02-26T12:31:22.010Z,0.80
2023-02-26T12:33:54.929Z,0.60
2023-02-26T12:36:46.504Z,0.60
2023-02-26T12:39:33.412Z,0.63
2023-02-26T12:42:07.585Z,0.50
2023-02-26T12:44:49.667Z,1.03
2023-02-26T12:47:24.178Z,0.40
2023-02-26T12:50:05.127Z,0.40
2023-02-26T12:52:42.619Z,0.40
2023-02-26T12:55:20.675Z,0.50
2023-02-26T12:57:55.830Z,0.80
2023-02-26T13:00:28.215Z,0.43
2023-02-26T13:03:08.770Z,0.50
2023-02-26T13:05:43.122Z,0.40
2023-02-26T13:08:13.855Z,0.60
2023-02-26T13:10:45.370Z,0.30
2023-02-26T13:13:19.737Z,0.60
2023-02-26T13:16:04.264Z,0.90
2023-02-26T13:18:37.187Z,0.50
2023-02-26T13:21:06.474Z,0.60
2023-02-26T13:23:36.008Z,0.63
2023-02-26T13:26:05.884Z,0.50
2023-02-26T13:28:39.304Z,0.60
2023-02-26T13:31:08.935Z,0.80
2023-02-26T13:33:36.750Z,0.60
2023-02-26T13:36:06.857Z,0.70
2023-02-26T13:38:36.668Z,0.80
2023-02-26T13:41:08.461Z,0.60
2023-02-26T13:43:42.797Z,0.30
2023-02-26T13:46:17.357Z,0.60
2023-02-26T13:48:49.083Z,0.80
2023-02-26T13:51:26.574Z,0.47
2023-02-26T13:53:56.267Z,0.60
2023-02-26T13:56:42.863Z,0.60
2023-02-26T14:02:05.161Z,0.50
2023-02-26T14:04:33.679Z,0.37
2023-02-26T14:07:01.906Z,0.20
2023-02-26T14:09:51.718Z,0.57
2023-02-26T14:12:31.918Z,0.60
2023-02-26T14:15:17.845Z,0.30
2023-02-26T14:17:50.985Z,0.20
2023-02-26T14:20:23.281Z,0.30
2023-02-26T14:22:59.859Z,0.20
2023-02-26T14:25:32.949Z,0.40
2023-02-26T14:28:20.475Z,0.30
2023-02-26T14:30:48.834Z,0.20
2023-02-26T14:33:19.311Z,0.43
2023-02-26T14:35:48.392Z,0.30
2023-02-26T14:38:22.328Z,0.50
2023-02-26T14:40:55.255Z,0.50
2023-02-26T14:43:24.968Z,0.37
2023-02-26T14:45:52.595Z,0.53
2023-02-26T14:48:25.080Z,0.70
2023-02-26T14:50:58.912Z,0.50
2023-02-26T14:53:43.586Z,0.47
2023-02-26T14:56:14.955Z,0.50
2023-02-26T14:58:47.327Z,0.60
2023-02-26T15:01:21.844Z,0.40
2023-02-26T15:04:07.890Z,0.50
2023-02-26T15:06:44.823Z,0.30
2023-02-26T15:09:16.297Z,0.60
2023-02-26T15:11:52.469Z,0.60
2023-02-26T15:14:30.786Z,0.30
2023-02-26T15:17:03.289Z,0.40
2023-02-26T15:19:41.944Z,0.67
2023-02-26T15:22:25.082Z,0.30
2023-02-26T15:24:52.687Z,0.50
2023-02-26T15:27:20.955Z,0.37
2023-02-26T15:29:50.390Z,0.30
2023-02-26T15:32:22.371Z,0.53
2023-02-26T15:34:57.118Z,0.40
2023-02-26T15:37:26.687Z,0.40
2023-02-26T15:39:54.270Z,0.50
2023-02-26T15:42:23.200Z,0.40
2023-02-26T15:44:57.225Z,0.57
2023-02-26T15:47:25.014Z,0.47
2023-02-26T15:49:56.520Z,0.40
2023-02-26T15:52:26.138Z,0.40
2023-02-26T15:54:55.523Z,0.50
2023-02-26T15:57:24.146Z,0.47
2023-02-26T15:59:52.330Z,0.40
2023-02-26T16:02:21.784Z,0.50
2023-02-26T16:04:49.510Z,0.50
2023-02-26T16:07:18.212Z,0.50
2023-02-26T16:09:46.468Z,0.73
2023-02-26T16:12:16.246Z,0.50
2023-02-26T16:14:45.283Z,0.40
2023-02-26T16:17:14.254Z,0.60
2023-02-26T16:19:43.604Z,0.40
2023-02-26T16:22:15.254Z,0.43
2023-02-26T16:24:44.222Z,0.50
2023-02-26T16:27:13.583Z,0.60
2023-02-26T16:29:45.775Z,0.90
2023-02-26T16:32:13.839Z,0.43
2023-02-26T16:34:43.211Z,0.10
2023-02-26T16:37:11.624Z,0.37
2023-02-26T16:39:44.065Z,0.50
2023-02-26T16:42:15.357Z,0.30
2023-02-26T16:44:48.140Z,0.43
2023-02-26T16:47:15.996Z,0.40
2023-02-26T16:49:44.370Z,0.50
2023-02-26T16:52:16.606Z,0.60
2023-02-26T16:54:45.361Z,0.50
2023-02-26T16:57:19.751Z,0.60
2023-02-26T16:59:50.431Z,0.50
2023-02-26T17:02:20.052Z,0.90
2023-02-26T17:04:48.536Z,0.50
2023-02-26T17:07:16.749Z,0.73
2023-02-26T17:09:48.326Z,0.67
2023-02-26T17:12:18.614Z,0.77
2023-02-26T17:14:47.936Z,0.73
2023-02-26T17:17:15.563Z,0.93
2023-02-26T17:19:43.036Z,1.00
2023-02-26T17:22:13.083Z,0.70
2023-02-26T17:24:41.979Z,0.83
2023-02-26T17:27:11.150Z,0.97
2023-02-26T17:29:41.175Z,0.70
2023-02-26T17:32:12.082Z,0.70
2023-02-26T17:34:39.654Z,0.70
2023-02-26T17:37:07.771Z,0.33
2023-02-26T17:39:35.527Z,0.60
2023-02-26T17:42:03.019Z,0.73
2023-02-26T17:44:30.386Z,0.73
2023-02-26T17:46:59.052Z,0.60
2023-02-26T17:49:26.575Z,0.80
2023-02-26T17:51:54.048Z,0.90
2023-02-26T17:54:21.400Z,0.90
2023-02-26T17:56:49.636Z,0.57
2023-02-26T17:59:16.956Z,0.70
2023-02-26T18:01:44.400Z,0.70
2023-02-26T18:04:13.412Z,0.63
2023-02-26T18:06:40.873Z,0.77
2023-02-26T18:09:08.348Z,0.80
2023-02-26T18:11:35.990Z,0.90
2023-02-26T18:14:03.540Z,0.70
2023-02-26T18:16:33.294Z,0.70
2023-02-26T18:19:01.570Z,0.60
2023-02-26T18:21:31.273Z,0.70
2023-02-26T18:24:00.977Z,0.80
2023-02-26T18:26:30.539Z,0.70
2023-02-26T18:28:58.122Z,0.73
2023-02-26T18:31:33.406Z,0.80
2023-02-26T18:34:01.989Z,0.70
2023-02-26T18:36:34.485Z,0.70
2023-02-26T18:39:02.677Z,0.70
2023-02-26T18:41:30.363Z,0.80
2023-02-26T18:43:57.746Z,0.80
2023-02-26T18:46:25.432Z,1.10
2023-02-26T18:48:52.806Z,0.73
2023-02-26T18:51:20.180Z,0.67
2023-02-26T18:53:49.076Z,0.80
2023-02-26T18:56:16.517Z,1.00
2023-02-26T18:58:43.999Z,1.10
2023-02-26T19:01:11.564Z,0.70
2023-02-26T19:03:38.981Z,0.80
2023-02-26T19:06:08.828Z,0.70
2023-02-26T19:08:36.784Z,1.03
2023-02-26T19:11:05.766Z,0.90
2023-02-26T19:13:34.524Z,0.83
2023-02-26T19:16:02.034Z,0.83
2023-02-26T19:18:30.131Z,0.70
2023-02-26T19:20:57.795Z,1.00
2023-02-26T19:23:25.180Z,1.00
2023-02-26T19:25:52.718Z,0.70
2023-02-26T19:28:21.534Z,0.87
2023-02-26T19:30:48.924Z,1.00
2023-02-26T19:33:20.377Z,0.50
2023-02-26T19:35:47.932Z,0.93
2023-02-26T19:38:15.513Z,0.30
2023-02-26T19:40:43.549Z,0.60
2023-02-26T19:43:11.011Z,0.50
2023-02-26T19:45:39.761Z,0.60
2023-02-26T19:48:07.120Z,0.87
2023-02-26T19:50:34.899Z,0.93
2023-02-26T19:53:03.704Z,0.50
2023-02-26T19:55:31.134Z,0.80
2023-02-26T19:57:58.689Z,1.00
2023-02-26T20:00:26.880Z,1.00
2023-02-26T20:02:55.630Z,0.60
2023-02-26T20:05:23.339Z,1.27
2023-02-26T20:07:50.766Z,0.70
2023-02-26T20:10:18.881Z,1.00
2023-02-26T20:12:46.737Z,0.70
2023-02-26T20:15:14.232Z,0.97
2023-02-26T20:17:41.599Z,0.63
2023-02-26T20:20:11.507Z,1.00
2023-02-26T20:22:38.855Z,1.10
2023-02-26T20:25:06.518Z,1.00
2023-02-26T20:27:33.964Z,0.87
2023-02-26T20:30:01.301Z,0.80
2023-02-26T20:32:28.856Z,1.03
2023-02-26T20:34:56.456Z,1.10
2023-02-26T20:37:25.170Z,0.80
2023-02-26T20:39:52.494Z,0.83
2023-02-26T20:42:20.039Z,0.63
2023-02-26T20:44:47.385Z,0.83
2023-02-26T20:47:14.797Z,1.00
2023-02-26T20:49:42.129Z,0.90
2023-02-26T20:52:09.760Z,1.00
2023-02-26T20:54:38.610Z,0.80
2023-02-26T20:57:06.072Z,1.00
2023-02-26T20:59:33.469Z,1.20
2023-02-26T21:02:00.933Z,0.53
2023-02-26T21:04:30.310Z,0.60
2023-02-26T21:07:12.436Z,0.70
2023-02-26T21:09:41.242Z,0.70
2023-02-26T21:12:08.928Z,0.50
2023-02-26T21:14:36.493Z,0.73
2023-02-26T21:17:04.563Z,0.80
2023-02-26T21:19:32.051Z,0.83
2023-02-26T21:22:00.821Z,0.60
2023-02-26T21:24:28.439Z,0.73
2023-02-26T21:26:57.325Z,0.90
2023-02-26T21:29:24.823Z,1.00
2023-02-26T21:31:53.565Z,0.70
2023-02-26T21:34:33.085Z,0.77
2023-02-26T21:37:01.505Z,1.00
2023-02-26T21:39:29.273Z,0.60
2023-02-26T21:42:00.106Z,0.53
2023-02-26T21:44:27.876Z,0.70
2023-02-26T21:46:57.505Z,0.70
2023-02-26T21:49:25.692Z,0.73
2023-02-26T21:51:53.627Z,0.57
2023-02-26T21:54:20.982Z,0.60
2023-02-26T21:56:48.643Z,0.70
2023-02-26T21:59:17.645Z,0.50
2023-02-26T22:01:45.693Z,0.90
2023-02-26T22:04:13.342Z,0.80
2023-02-26T22:06:40.677Z,0.60
2023-02-26T22:09:08.162Z,0.60
2023-02-26T22:11:35.581Z,0.80
2023-02-26T22:14:03.074Z,0.93
2023-02-26T22:16:31.814Z,0.70
2023-02-26T22:19:00.274Z,0.83
2023-02-26T22:21:27.953Z,0.63
2023-02-26T22:23:55.548Z,0.53
2023-02-26T22:26:23.052Z,0.70
2023-02-26T22:28:51.158Z,0.70
2023-02-26T22:31:19.209Z,0.43
2023-02-26T22:33:47.946Z,0.60
2023-02-26T22:36:15.366Z,0.70
2023-02-26T22:38:42.792Z,0.47
2023-02-26T22:41:10.355Z,0.70
2023-02-26T22:43:38.974Z,0.50
2023-02-26T22:46:06.331Z,0.90
2023-02-26T22:48:34.151Z,0.47
2023-02-26T22:51:03.074Z,0.60
2023-02-26T22:53:31.797Z,0.90
2023-02-26T22:56:00.524Z,0.53
2023-02-26T22:58:28.721Z,0.50
2023-02-26T23:01:00.521Z,0.60
2023-02-26T23:03:28.027Z,0.70
2023-02-26T23:05:55.533Z,0.60
2023-02-26T23:08:24.458Z,0.40
2023-02-26T23:10:54.136Z,0.70
2023-02-26T23:13:21.756Z,0.37
2023-02-26T23:15:49.299Z,0.30
2023-02-26T23:18:16.850Z,0.60
2023-02-26T23:20:45.140Z,0.70
2023-02-26T23:23:12.609Z,0.50
2023-02-26T23:25:43.067Z,0.50
2023-02-26T23:28:11.129Z,0.57
2023-02-26T23:30:38.863Z,0.50
2023-02-26T23:33:07.151Z,0.50
2023-02-26T23:35:34.518Z,0.90
2023-02-26T23:38:01.917Z,0.73
2023-02-26T23:40:29.463Z,0.60
2023-02-26T23:42:58.595Z,0.90
2023-02-26T23:45:26.320Z,0.53
2023-02-26T23:47:53.721Z,0.60
2023-02-26T23:50:21.706Z,0.50
2023-02-26T23:52:49.110Z,0.60
2023-02-26T23:55:16.472Z,0.53
2023-02-26T23:57:44.273Z,0.40
